sensor_id;sensor_type;location;lat;lon;timestamp;P1;durP1;ratioP1;P2;durP2;ratioP2
12118;SDS011;6123;48.864;9.200;2024-02-23T00:01:05;0.40;;;0.30;;
12118;SDS011;6123;48.864;9.200;2024-02-23T00:03:31;0.85;;;0.38;;
12118;SDS011;6123;48.864;9.200;2024-02-23T00:05:57;1.17;;;0.30;;
12118;SDS011;6123;48.864;9.200;2024-02-23T00:08:23;1.17;;;0.30;;
12118;SDS011;6123;48.864;9.200;2024-02-23T00:10:49;0.35;;;0.20;;
12118;SDS011;6123;48.864;9.200;2024-02-23T00:13:15;0.43;;;0.28;;
12118;SDS011;6123;48.864;9.200;2024-02-23T00:15:40;1.55;;;0.32;;
12118;SDS011;6123;48.864;9.200;2024-02-23T00:18:06;0.52;;;0.40;;
12118;SDS011;6123;48.864;9.200;2024-02-23T00:20:31;0.38;;;0.20;;
12118;SDS011;6123;48.864;9.200;2024-02-23T00:22:57;0.80;;;0.30;;
12118;SDS011;6123;48.864;9.200;2024-02-23T00:25:23;0.65;;;0.40;;
12118;SDS011;6123;48.864;9.200;2024-02-23T00:27:49;3.45;;;0.40;;
12118;SDS011;6123;48.864;9.200;2024-02-23T00:30:14;1.02;;;0.45;;
12118;SDS011;6123;48.864;9.200;2024-02-23T00:32:40;1.52;;;0.60;;
12118;SDS011;6123;48.864;9.200;2024-02-23T00:35:06;1.10;;;0.50;;
12118;SDS011;6123;48.864;9.200;2024-02-23T00:37:31;0.60;;;0.40;;
12118;SDS011;6123;48.864;9.200;2024-02-23T00:40:01;0.90;;;0.47;;
12118;SDS011;6123;48.864;9.200;2024-02-23T00:42:29;1.02;;;0.50;;
12118;SDS011;6123;48.864;9.200;2024-02-23T00:44:55;0.40;;;0.25;;
12118;SDS011;6123;48.864;9.200;2024-02-23T00:47:20;1.00;;;0.52;;
12118;SDS011;6123;48.864;9.200;2024-02-23T00:49:46;0.30;;;0.30;;
12118;SDS011;6123;48.864;9.200;2024-02-23T00:52:11;0.68;;;0.40;;
12118;SDS011;6123;48.864;9.200;2024-02-23T00:54:37;0.60;;;0.40;;
12118;SDS011;6123;48.864;9.200;2024-02-23T00:57:02;1.70;;;0.68;;
12118;SDS011;6123;48.864;9.200;2024-02-23T00:59:28;0.88;;;0.47;;
12118;SDS011;6123;48.864;9.200;2024-02-23T01:01:54;1.92;;;0.80;;
12118;SDS011;6123;48.864;9.200;2024-02-23T01:04:20;1.10;;;0.57;;
12118;SDS011;6123;48.864;9.200;2024-02-23T01:06:46;0.82;;;0.35;;
12118;SDS011;6123;48.864;9.200;2024-02-23T01:09:11;2.80;;;1.00;;
12118;SDS011;6123;48.864;9.200;2024-02-23T01:11:37;2.45;;;0.68;;
12118;SDS011;6123;48.864;9.200;2024-02-23T01:14:02;2.63;;;0.93;;
12118;SDS011;6123;48.864;9.200;2024-02-23T01:16:28;1.48;;;0.43;;
12118;SDS011;6123;48.864;9.200;2024-02-23T01:18:54;2.63;;;0.50;;
12118;SDS011;6123;48.864;9.200;2024-02-23T01:21:19;2.85;;;0.80;;
12118;SDS011;6123;48.864;9.200;2024-02-23T01:23:45;1.25;;;0.60;;
12118;SDS011;6123;48.864;9.200;2024-02-23T01:26:10;1.67;;;0.70;;
12118;SDS011;6123;48.864;9.200;2024-02-23T01:28:36;1.45;;;0.57;;
12118;SDS011;6123;48.864;9.200;2024-02-23T01:31:02;1.73;;;0.77;;
12118;SDS011;6123;48.864;9.200;2024-02-23T01:33:29;2.75;;;0.93;;
12118;SDS011;6123;48.864;9.200;2024-02-23T01:35:54;2.25;;;0.52;;
12118;SDS011;6123;48.864;9.200;2024-02-23T01:38:22;2.28;;;0.70;;
12118;SDS011;6123;48.864;9.200;2024-02-23T01:40:49;3.15;;;0.80;;
12118;SDS011;6123;48.864;9.200;2024-02-23T01:43:15;1.08;;;0.47;;
12118;SDS011;6123;48.864;9.200;2024-02-23T01:45:41;4.47;;;0.77;;
12118;SDS011;6123;48.864;9.200;2024-02-23T01:48:06;0.75;;;0.50;;
12118;SDS011;6123;48.864;9.200;2024-02-23T01:50:32;2.17;;;1.10;;
12118;SDS011;6123;48.864;9.200;2024-02-23T01:53:00;3.50;;;0.85;;
12118;SDS011;6123;48.864;9.200;2024-02-23T01:55:27;0.95;;;0.63;;
12118;SDS011;6123;48.864;9.200;2024-02-23T01:57:53;1.88;;;0.60;;
12118;SDS011;6123;48.864;9.200;2024-02-23T02:00:19;0.60;;;0.40;;
12118;SDS011;6123;48.864;9.200;2024-02-23T02:02:46;1.40;;;0.60;;
12118;SDS011;6123;48.864;9.200;2024-02-23T02:05:12;1.75;;;0.47;;
12118;SDS011;6123;48.864;9.200;2024-02-23T02:07:38;1.27;;;0.57;;
12118;SDS011;6123;48.864;9.200;2024-02-23T02:10:06;1.52;;;0.60;;
12118;SDS011;6123;48.864;9.200;2024-02-23T02:12:34;1.00;;;0.52;;
12118;SDS011;6123;48.864;9.200;2024-02-23T02:15:00;0.98;;;0.45;;
12118;SDS011;6123;48.864;9.200;2024-02-23T02:17:27;1.13;;;0.40;;
12118;SDS011;6123;48.864;9.200;2024-02-23T02:19:53;1.48;;;0.60;;
12118;SDS011;6123;48.864;9.200;2024-02-23T02:22:19;1.85;;;0.68;;
12118;SDS011;6123;48.864;9.200;2024-02-23T02:24:44;1.23;;;0.43;;
12118;SDS011;6123;48.864;9.200;2024-02-23T02:27:11;1.02;;;0.30;;
12118;SDS011;6123;48.864;9.200;2024-02-23T02:29:37;2.25;;;0.75;;
12118;SDS011;6123;48.864;9.200;2024-02-23T02:32:03;1.58;;;0.75;;
12118;SDS011;6123;48.864;9.200;2024-02-23T02:34:29;0.73;;;0.73;;
12118;SDS011;6123;48.864;9.200;2024-02-23T02:36:54;1.55;;;0.60;;
12118;SDS011;6123;48.864;9.200;2024-02-23T02:39:20;1.38;;;0.57;;
12118;SDS011;6123;48.864;9.200;2024-02-23T02:41:47;1.40;;;0.50;;
12118;SDS011;6123;48.864;9.200;2024-02-23T02:44:13;1.30;;;0.50;;
12118;SDS011;6123;48.864;9.200;2024-02-23T02:46:40;1.25;;;0.63;;
12118;SDS011;6123;48.864;9.200;2024-02-23T02:49:05;2.65;;;0.80;;
12118;SDS011;6123;48.864;9.200;2024-02-23T02:51:31;1.70;;;0.50;;
12118;SDS011;6123;48.864;9.200;2024-02-23T02:53:56;1.38;;;0.50;;
12118;SDS011;6123;48.864;9.200;2024-02-23T02:56:22;1.13;;;0.68;;
12118;SDS011;6123;48.864;9.200;2024-02-23T02:58:48;0.77;;;0.30;;
12118;SDS011;6123;48.864;9.200;2024-02-23T03:01:14;0.90;;;0.47;;
12118;SDS011;6123;48.864;9.200;2024-02-23T03:03:39;0.70;;;0.40;;
12118;SDS011;6123;48.864;9.200;2024-02-23T03:06:05;2.58;;;0.57;;
12118;SDS011;6123;48.864;9.200;2024-02-23T03:08:31;1.48;;;0.45;;
12118;SDS011;6123;48.864;9.200;2024-02-23T03:10:56;1.23;;;0.73;;
12118;SDS011;6123;48.864;9.200;2024-02-23T03:13:22;1.33;;;0.40;;
12118;SDS011;6123;48.864;9.200;2024-02-23T03:15:47;1.95;;;0.75;;
12118;SDS011;6123;48.864;9.200;2024-02-23T03:18:13;1.95;;;0.85;;
12118;SDS011;6123;48.864;9.200;2024-02-23T03:20:40;1.05;;;0.50;;
12118;SDS011;6123;48.864;9.200;2024-02-23T03:23:08;1.13;;;0.63;;
12118;SDS011;6123;48.864;9.200;2024-02-23T03:25:34;0.45;;;0.40;;
12118;SDS011;6123;48.864;9.200;2024-02-23T03:28:00;1.30;;;0.50;;
12118;SDS011;6123;48.864;9.200;2024-02-23T03:30:26;1.63;;;0.47;;
12118;SDS011;6123;48.864;9.200;2024-02-23T03:32:51;1.88;;;0.50;;
12118;SDS011;6123;48.864;9.200;2024-02-23T03:35:17;1.13;;;0.63;;
12118;SDS011;6123;48.864;9.200;2024-02-23T03:37:42;1.65;;;0.50;;
12118;SDS011;6123;48.864;9.200;2024-02-23T03:40:08;3.50;;;0.60;;
12118;SDS011;6123;48.864;9.200;2024-02-23T03:42:35;1.25;;;0.50;;
12118;SDS011;6123;48.864;9.200;2024-02-23T03:45:01;0.75;;;0.30;;
12118;SDS011;6123;48.864;9.200;2024-02-23T03:47:27;1.33;;;0.40;;
12118;SDS011;6123;48.864;9.200;2024-02-23T03:49:53;0.75;;;0.57;;
12118;SDS011;6123;48.864;9.200;2024-02-23T03:52:19;2.03;;;0.30;;
12118;SDS011;6123;48.864;9.200;2024-02-23T03:54:44;1.13;;;0.45;;
12118;SDS011;6123;48.864;9.200;2024-02-23T03:57:10;0.45;;;0.25;;
12118;SDS011;6123;48.864;9.200;2024-02-23T03:59:36;0.98;;;0.40;;
12118;SDS011;6123;48.864;9.200;2024-02-23T04:02:02;1.50;;;0.47;;
12118;SDS011;6123;48.864;9.200;2024-02-23T04:04:28;2.65;;;0.73;;
12118;SDS011;6123;48.864;9.200;2024-02-23T04:06:53;0.90;;;0.55;;
12118;SDS011;6123;48.864;9.200;2024-02-23T04:09:19;0.70;;;0.50;;
12118;SDS011;6123;48.864;9.200;2024-02-23T04:11:47;2.47;;;0.65;;
12118;SDS011;6123;48.864;9.200;2024-02-23T04:14:13;1.10;;;0.40;;
12118;SDS011;6123;48.864;9.200;2024-02-23T04:16:39;1.42;;;0.60;;
12118;SDS011;6123;48.864;9.200;2024-02-23T04:19:04;0.95;;;0.60;;
12118;SDS011;6123;48.864;9.200;2024-02-23T04:21:30;1.60;;;0.50;;
12118;SDS011;6123;48.864;9.200;2024-02-23T04:23:55;2.75;;;0.73;;
12118;SDS011;6123;48.864;9.200;2024-02-23T04:26:21;0.63;;;0.38;;
12118;SDS011;6123;48.864;9.200;2024-02-23T04:28:47;0.77;;;0.50;;
12118;SDS011;6123;48.864;9.200;2024-02-23T04:31:12;0.95;;;0.50;;
12118;SDS011;6123;48.864;9.200;2024-02-23T04:33:38;1.88;;;0.60;;
12118;SDS011;6123;48.864;9.200;2024-02-23T04:36:04;1.30;;;0.85;;
12118;SDS011;6123;48.864;9.200;2024-02-23T04:38:30;1.52;;;0.70;;
12118;SDS011;6123;48.864;9.200;2024-02-23T04:40:56;1.45;;;0.60;;
12118;SDS011;6123;48.864;9.200;2024-02-23T04:43:23;2.42;;;0.75;;
12118;SDS011;6123;48.864;9.200;2024-02-23T04:45:50;1.48;;;0.57;;
12118;SDS011;6123;48.864;9.200;2024-02-23T04:48:16;3.50;;;0.77;;
12118;SDS011;6123;48.864;9.200;2024-02-23T04:50:42;2.25;;;0.75;;
12118;SDS011;6123;48.864;9.200;2024-02-23T04:53:07;1.02;;;0.30;;
12118;SDS011;6123;48.864;9.200;2024-02-23T04:55:33;2.22;;;0.45;;
12118;SDS011;6123;48.864;9.200;2024-02-23T04:57:58;2.17;;;0.65;;
12118;SDS011;6123;48.864;9.200;2024-02-23T05:00:24;2.10;;;0.50;;
12118;SDS011;6123;48.864;9.200;2024-02-23T05:02:53;1.92;;;0.50;;
12118;SDS011;6123;48.864;9.200;2024-02-23T05:05:19;1.50;;;0.80;;
12118;SDS011;6123;48.864;9.200;2024-02-23T05:07:47;1.75;;;0.65;;
12118;SDS011;6123;48.864;9.200;2024-02-23T05:10:12;1.23;;;0.52;;
12118;SDS011;6123;48.864;9.200;2024-02-23T05:12:38;1.08;;;0.20;;
12118;SDS011;6123;48.864;9.200;2024-02-23T05:15:03;1.92;;;0.82;;
12118;SDS011;6123;48.864;9.200;2024-02-23T05:17:29;2.47;;;0.65;;
12118;SDS011;6123;48.864;9.200;2024-02-23T05:19:54;1.50;;;0.70;;
12118;SDS011;6123;48.864;9.200;2024-02-23T05:22:20;1.00;;;0.50;;
12118;SDS011;6123;48.864;9.200;2024-02-23T05:24:45;1.77;;;0.60;;
12118;SDS011;6123;48.864;9.200;2024-02-23T05:27:11;1.90;;;0.75;;
12118;SDS011;6123;48.864;9.200;2024-02-23T05:29:36;1.42;;;0.63;;
12118;SDS011;6123;48.864;9.200;2024-02-23T05:32:02;0.80;;;0.50;;
12118;SDS011;6123;48.864;9.200;2024-02-23T05:34:28;2.60;;;0.73;;
12118;SDS011;6123;48.864;9.200;2024-02-23T05:36:53;0.85;;;0.60;;
12118;SDS011;6123;48.864;9.200;2024-02-23T05:39:19;3.33;;;0.80;;
12118;SDS011;6123;48.864;9.200;2024-02-23T05:41:44;2.38;;;0.63;;
12118;SDS011;6123;48.864;9.200;2024-02-23T05:44:10;2.08;;;0.50;;
12118;SDS011;6123;48.864;9.200;2024-02-23T05:46:36;0.80;;;0.65;;
12118;SDS011;6123;48.864;9.200;2024-02-23T05:49:02;2.65;;;0.70;;
12118;SDS011;6123;48.864;9.200;2024-02-23T05:51:31;1.55;;;0.52;;
12118;SDS011;6123;48.864;9.200;2024-02-23T05:53:57;1.70;;;1.05;;
12118;SDS011;6123;48.864;9.200;2024-02-23T05:56:23;1.88;;;0.70;;
12118;SDS011;6123;48.864;9.200;2024-02-23T05:58:49;1.90;;;1.02;;
12118;SDS011;6123;48.864;9.200;2024-02-23T06:01:16;1.45;;;0.82;;
12118;SDS011;6123;48.864;9.200;2024-02-23T06:03:41;3.22;;;1.15;;
12118;SDS011;6123;48.864;9.200;2024-02-23T06:06:07;1.15;;;0.50;;
12118;SDS011;6123;48.864;9.200;2024-02-23T06:08:33;1.02;;;0.52;;
12118;SDS011;6123;48.864;9.200;2024-02-23T06:10:59;2.58;;;0.70;;
12118;SDS011;6123;48.864;9.200;2024-02-23T06:13:25;1.83;;;0.80;;
12118;SDS011;6123;48.864;9.200;2024-02-23T06:15:50;1.75;;;0.75;;
12118;SDS011;6123;48.864;9.200;2024-02-23T06:18:17;1.50;;;0.55;;
12118;SDS011;6123;48.864;9.200;2024-02-23T06:20:42;0.80;;;0.63;;
12118;SDS011;6123;48.864;9.200;2024-02-23T06:23:08;2.00;;;0.60;;
12118;SDS011;6123;48.864;9.200;2024-02-23T06:25:33;2.17;;;0.70;;
12118;SDS011;6123;48.864;9.200;2024-02-23T06:27:59;1.08;;;0.60;;
12118;SDS011;6123;48.864;9.200;2024-02-23T06:30:24;1.55;;;0.60;;
12118;SDS011;6123;48.864;9.200;2024-02-23T06:32:50;0.60;;;0.60;;
12118;SDS011;6123;48.864;9.200;2024-02-23T06:35:16;1.95;;;0.80;;
12118;SDS011;6123;48.864;9.200;2024-02-23T06:37:42;1.40;;;0.70;;
12118;SDS011;6123;48.864;9.200;2024-02-23T06:40:07;2.92;;;0.70;;
12118;SDS011;6123;48.864;9.200;2024-02-23T06:42:33;1.60;;;0.68;;
12118;SDS011;6123;48.864;9.200;2024-02-23T06:44:59;1.73;;;0.90;;
12118;SDS011;6123;48.864;9.200;2024-02-23T06:47:25;0.70;;;0.50;;
12118;SDS011;6123;48.864;9.200;2024-02-23T06:49:50;1.92;;;0.80;;
12118;SDS011;6123;48.864;9.200;2024-02-23T06:52:16;1.70;;;1.00;;
12118;SDS011;6123;48.864;9.200;2024-02-23T06:54:43;2.05;;;0.98;;
12118;SDS011;6123;48.864;9.200;2024-02-23T06:57:08;0.88;;;0.65;;
12118;SDS011;6123;48.864;9.200;2024-02-23T06:59:34;2.65;;;1.15;;
12118;SDS011;6123;48.864;9.200;2024-02-23T07:01:59;1.70;;;0.82;;
12118;SDS011;6123;48.864;9.200;2024-02-23T07:04:25;1.40;;;0.88;;
12118;SDS011;6123;48.864;9.200;2024-02-23T07:06:51;2.13;;;0.80;;
12118;SDS011;6123;48.864;9.200;2024-02-23T07:09:17;1.02;;;0.93;;
12118;SDS011;6123;48.864;9.200;2024-02-23T07:11:42;3.22;;;0.90;;
12118;SDS011;6123;48.864;9.200;2024-02-23T07:14:09;0.98;;;0.88;;
12118;SDS011;6123;48.864;9.200;2024-02-23T07:16:38;2.35;;;0.77;;
12118;SDS011;6123;48.864;9.200;2024-02-23T07:19:07;1.30;;;0.45;;
12118;SDS011;6123;48.864;9.200;2024-02-23T07:21:33;2.20;;;0.75;;
12118;SDS011;6123;48.864;9.200;2024-02-23T07:23:59;1.33;;;0.70;;
12118;SDS011;6123;48.864;9.200;2024-02-23T07:26:25;0.98;;;0.77;;
12118;SDS011;6123;48.864;9.200;2024-02-23T07:28:53;1.40;;;0.90;;
12118;SDS011;6123;48.864;9.200;2024-02-23T07:31:19;2.55;;;0.85;;
12118;SDS011;6123;48.864;9.200;2024-02-23T07:33:44;3.22;;;1.42;;
12118;SDS011;6123;48.864;9.200;2024-02-23T07:36:16;2.08;;;1.15;;
12118;SDS011;6123;48.864;9.200;2024-02-23T07:38:41;1.67;;;0.70;;
12118;SDS011;6123;48.864;9.200;2024-02-23T07:41:08;0.60;;;0.60;;
12118;SDS011;6123;48.864;9.200;2024-02-23T07:43:34;1.83;;;0.63;;
12118;SDS011;6123;48.864;9.200;2024-02-23T07:46:01;3.03;;;1.05;;
12118;SDS011;6123;48.864;9.200;2024-02-23T07:48:27;1.17;;;0.65;;
12118;SDS011;6123;48.864;9.200;2024-02-23T07:50:53;0.80;;;0.65;;
12118;SDS011;6123;48.864;9.200;2024-02-23T07:53:18;1.30;;;0.73;;
12118;SDS011;6123;48.864;9.200;2024-02-23T07:55:44;3.17;;;1.00;;
12118;SDS011;6123;48.864;9.200;2024-02-23T07:58:09;2.13;;;1.10;;
12118;SDS011;6123;48.864;9.200;2024-02-23T08:00:35;1.23;;;0.90;;
12118;SDS011;6123;48.864;9.200;2024-02-23T08:03:03;3.83;;;0.90;;
12118;SDS011;6123;48.864;9.200;2024-02-23T08:05:29;2.33;;;0.90;;
12118;SDS011;6123;48.864;9.200;2024-02-23T08:07:54;2.85;;;0.95;;
12118;SDS011;6123;48.864;9.200;2024-02-23T08:10:20;2.20;;;1.23;;
12118;SDS011;6123;48.864;9.200;2024-02-23T08:12:46;1.65;;;0.68;;
12118;SDS011;6123;48.864;9.200;2024-02-23T08:15:12;2.50;;;1.00;;
12118;SDS011;6123;48.864;9.200;2024-02-23T08:17:38;2.65;;;0.82;;
12118;SDS011;6123;48.864;9.200;2024-02-23T08:20:04;1.77;;;0.85;;
12118;SDS011;6123;48.864;9.200;2024-02-23T08:22:30;1.80;;;1.02;;
12118;SDS011;6123;48.864;9.200;2024-02-23T08:24:56;1.63;;;1.00;;
12118;SDS011;6123;48.864;9.200;2024-02-23T08:27:21;2.83;;;1.10;;
12118;SDS011;6123;48.864;9.200;2024-02-23T08:29:47;0.95;;;0.70;;
12118;SDS011;6123;48.864;9.200;2024-02-23T08:32:16;1.63;;;0.85;;
12118;SDS011;6123;48.864;9.200;2024-02-23T08:34:43;1.88;;;0.95;;
12118;SDS011;6123;48.864;9.200;2024-02-23T08:37:09;1.48;;;1.00;;
12118;SDS011;6123;48.864;9.200;2024-02-23T08:39:35;1.50;;;0.90;;
12118;SDS011;6123;48.864;9.200;2024-02-23T08:42:02;2.15;;;0.90;;
12118;SDS011;6123;48.864;9.200;2024-02-23T08:44:28;2.25;;;0.75;;
12118;SDS011;6123;48.864;9.200;2024-02-23T08:46:53;1.83;;;0.90;;
12118;SDS011;6123;48.864;9.200;2024-02-23T08:49:19;4.07;;;1.48;;
12118;SDS011;6123;48.864;9.200;2024-02-23T08:51:44;3.05;;;1.00;;
12118;SDS011;6123;48.864;9.200;2024-02-23T08:54:10;1.63;;;1.10;;
12118;SDS011;6123;48.864;9.200;2024-02-23T08:56:38;2.00;;;0.93;;
12118;SDS011;6123;48.864;9.200;2024-02-23T08:59:07;2.55;;;1.05;;
12118;SDS011;6123;48.864;9.200;2024-02-23T09:01:32;2.03;;;0.95;;
12118;SDS011;6123;48.864;9.200;2024-02-23T09:03:58;1.80;;;0.70;;
12118;SDS011;6123;48.864;9.200;2024-02-23T09:06:23;0.80;;;0.70;;
12118;SDS011;6123;48.864;9.200;2024-02-23T09:08:49;1.58;;;0.70;;
12118;SDS011;6123;48.864;9.200;2024-02-23T09:11:14;2.38;;;0.90;;
12118;SDS011;6123;48.864;9.200;2024-02-23T09:13:40;1.30;;;0.68;;
12118;SDS011;6123;48.864;9.200;2024-02-23T09:16:07;2.97;;;1.30;;
12118;SDS011;6123;48.864;9.200;2024-02-23T09:18:33;1.52;;;0.68;;
12118;SDS011;6123;48.864;9.200;2024-02-23T09:20:59;2.33;;;1.35;;
12118;SDS011;6123;48.864;9.200;2024-02-23T09:23:25;2.38;;;0.95;;
12118;SDS011;6123;48.864;9.200;2024-02-23T09:25:51;4.07;;;1.30;;
12118;SDS011;6123;48.864;9.200;2024-02-23T09:28:16;0.90;;;0.68;;
12118;SDS011;6123;48.864;9.200;2024-02-23T09:30:42;0.95;;;0.70;;
12118;SDS011;6123;48.864;9.200;2024-02-23T09:33:07;2.67;;;1.00;;
12118;SDS011;6123;48.864;9.200;2024-02-23T09:35:33;1.55;;;0.82;;
12118;SDS011;6123;48.864;9.200;2024-02-23T09:37:59;2.17;;;0.95;;
12118;SDS011;6123;48.864;9.200;2024-02-23T09:40:24;1.00;;;0.70;;
12118;SDS011;6123;48.864;9.200;2024-02-23T09:42:52;2.30;;;1.00;;
12118;SDS011;6123;48.864;9.200;2024-02-23T09:45:21;1.35;;;0.82;;
12118;SDS011;6123;48.864;9.200;2024-02-23T09:47:49;3.35;;;0.98;;
12118;SDS011;6123;48.864;9.200;2024-02-23T09:50:15;2.92;;;0.75;;
12118;SDS011;6123;48.864;9.200;2024-02-23T09:52:44;2.25;;;0.90;;
12118;SDS011;6123;48.864;9.200;2024-02-23T09:55:11;1.80;;;0.82;;
12118;SDS011;6123;48.864;9.200;2024-02-23T09:57:37;3.15;;;1.02;;
12118;SDS011;6123;48.864;9.200;2024-02-23T10:00:03;1.42;;;0.82;;
12118;SDS011;6123;48.864;9.200;2024-02-23T10:02:31;2.22;;;1.13;;
12118;SDS011;6123;48.864;9.200;2024-02-23T10:04:57;1.90;;;0.88;;
12118;SDS011;6123;48.864;9.200;2024-02-23T10:07:26;2.72;;;1.17;;
12118;SDS011;6123;48.864;9.200;2024-02-23T10:09:52;1.35;;;1.00;;
12118;SDS011;6123;48.864;9.200;2024-02-23T10:12:18;2.88;;;0.95;;
12118;SDS011;6123;48.864;9.200;2024-02-23T10:14:43;1.48;;;0.77;;
12118;SDS011;6123;48.864;9.200;2024-02-23T10:17:09;2.45;;;1.20;;
12118;SDS011;6123;48.864;9.200;2024-02-23T10:19:34;2.67;;;0.90;;
12118;SDS011;6123;48.864;9.200;2024-02-23T10:22:00;1.70;;;0.70;;
12118;SDS011;6123;48.864;9.200;2024-02-23T10:24:26;2.00;;;0.85;;
12118;SDS011;6123;48.864;9.200;2024-02-23T10:26:51;2.15;;;1.00;;
12118;SDS011;6123;48.864;9.200;2024-02-23T10:29:17;2.65;;;0.90;;
12118;SDS011;6123;48.864;9.200;2024-02-23T10:31:44;2.60;;;0.82;;
12118;SDS011;6123;48.864;9.200;2024-02-23T10:34:14;1.35;;;0.90;;
12118;SDS011;6123;48.864;9.200;2024-02-23T10:36:43;1.65;;;1.10;;
12118;SDS011;6123;48.864;9.200;2024-02-23T10:39:10;2.33;;;0.65;;
12118;SDS011;6123;48.864;9.200;2024-02-23T10:41:39;2.67;;;0.98;;
12118;SDS011;6123;48.864;9.200;2024-02-23T10:44:11;1.42;;;0.73;;
12118;SDS011;6123;48.864;9.200;2024-02-23T10:46:37;2.42;;;0.85;;
12118;SDS011;6123;48.864;9.200;2024-02-23T10:49:05;3.83;;;0.93;;
12118;SDS011;6123;48.864;9.200;2024-02-23T10:51:32;2.20;;;0.95;;
12118;SDS011;6123;48.864;9.200;2024-02-23T10:53:59;3.50;;;1.10;;
12118;SDS011;6123;48.864;9.200;2024-02-23T10:56:25;2.10;;;0.73;;
12118;SDS011;6123;48.864;9.200;2024-02-23T10:58:52;1.52;;;0.80;;
12118;SDS011;6123;48.864;9.200;2024-02-23T11:01:17;1.73;;;0.95;;
12118;SDS011;6123;48.864;9.200;2024-02-23T11:03:45;5.75;;;1.00;;
12118;SDS011;6123;48.864;9.200;2024-02-23T11:06:15;2.10;;;0.82;;
12118;SDS011;6123;48.864;9.200;2024-02-23T11:08:45;2.08;;;0.82;;
12118;SDS011;6123;48.864;9.200;2024-02-23T11:11:12;2.53;;;1.00;;
12118;SDS011;6123;48.864;9.200;2024-02-23T11:13:42;3.97;;;1.20;;
12118;SDS011;6123;48.864;9.200;2024-02-23T11:16:09;1.90;;;0.82;;
12118;SDS011;6123;48.864;9.200;2024-02-23T11:18:35;2.22;;;1.20;;
12118;SDS011;6123;48.864;9.200;2024-02-23T11:21:02;3.38;;;1.10;;
12118;SDS011;6123;48.864;9.200;2024-02-23T11:23:53;3.42;;;1.13;;
12118;SDS011;6123;48.864;9.200;2024-02-23T11:26:18;1.95;;;1.05;;
12118;SDS011;6123;48.864;9.200;2024-02-23T11:28:50;3.00;;;0.85;;
12118;SDS011;6123;48.864;9.200;2024-02-23T11:31:28;2.50;;;1.00;;
12118;SDS011;6123;48.864;9.200;2024-02-23T11:33:55;3.65;;;1.30;;
12118;SDS011;6123;48.864;9.200;2024-02-23T11:36:31;3.20;;;1.17;;
12118;SDS011;6123;48.864;9.200;2024-02-23T11:38:58;1.50;;;1.05;;
12118;SDS011;6123;48.864;9.200;2024-02-23T11:41:25;3.10;;;1.33;;
12118;SDS011;6123;48.864;9.200;2024-02-23T11:43:53;4.28;;;1.25;;
12118;SDS011;6123;48.864;9.200;2024-02-23T11:46:20;1.80;;;0.93;;
12118;SDS011;6123;48.864;9.200;2024-02-23T11:48:47;4.03;;;0.75;;
12118;SDS011;6123;48.864;9.200;2024-02-23T11:51:18;3.15;;;1.00;;
12118;SDS011;6123;48.864;9.200;2024-02-23T11:53:48;2.53;;;1.00;;
12118;SDS011;6123;48.864;9.200;2024-02-23T11:56:14;1.73;;;0.70;;
12118;SDS011;6123;48.864;9.200;2024-02-23T11:58:40;3.50;;;1.00;;
12118;SDS011;6123;48.864;9.200;2024-02-23T12:01:06;4.45;;;1.40;;
12118;SDS011;6123;48.864;9.200;2024-02-23T12:03:32;1.42;;;1.08;;
12118;SDS011;6123;48.864;9.200;2024-02-23T12:05:59;2.65;;;1.20;;
12118;SDS011;6123;48.864;9.200;2024-02-23T12:08:25;3.42;;;1.38;;
12118;SDS011;6123;48.864;9.200;2024-02-23T12:10:54;1.92;;;0.70;;
12118;SDS011;6123;48.864;9.200;2024-02-23T12:13:20;3.85;;;1.55;;
12118;SDS011;6123;48.864;9.200;2024-02-23T12:15:47;3.22;;;1.10;;
12118;SDS011;6123;48.864;9.200;2024-02-23T12:18:13;2.42;;;1.48;;
12118;SDS011;6123;48.864;9.200;2024-02-23T12:20:39;1.77;;;0.85;;
12118;SDS011;6123;48.864;9.200;2024-02-23T12:23:05;3.72;;;1.52;;
12118;SDS011;6123;48.864;9.200;2024-02-23T12:25:33;3.83;;;1.20;;
12118;SDS011;6123;48.864;9.200;2024-02-23T12:27:58;3.75;;;1.42;;
12118;SDS011;6123;48.864;9.200;2024-02-23T12:30:25;2.65;;;1.10;;
12118;SDS011;6123;48.864;9.200;2024-02-23T12:33:02;1.73;;;1.00;;
12118;SDS011;6123;48.864;9.200;2024-02-23T12:35:34;2.60;;;1.15;;
12118;SDS011;6123;48.864;9.200;2024-02-23T12:38:01;4.03;;;1.17;;
12118;SDS011;6123;48.864;9.200;2024-02-23T12:40:26;5.25;;;1.25;;
12118;SDS011;6123;48.864;9.200;2024-02-23T12:42:52;1.85;;;1.20;;
12118;SDS011;6123;48.864;9.200;2024-02-23T12:45:17;3.70;;;1.40;;
12118;SDS011;6123;48.864;9.200;2024-02-23T12:47:43;2.42;;;1.40;;
12118;SDS011;6123;48.864;9.200;2024-02-23T12:50:09;2.17;;;1.20;;
12118;SDS011;6123;48.864;9.200;2024-02-23T12:52:35;1.95;;;0.90;;
12118;SDS011;6123;48.864;9.200;2024-02-23T12:55:00;3.25;;;1.33;;
12118;SDS011;6123;48.864;9.200;2024-02-23T12:57:26;3.42;;;1.58;;
12118;SDS011;6123;48.864;9.200;2024-02-23T12:59:51;3.00;;;1.10;;
12118;SDS011;6123;48.864;9.200;2024-02-23T13:02:17;3.80;;;1.42;;
12118;SDS011;6123;48.864;9.200;2024-02-23T13:04:42;1.45;;;1.00;;
12118;SDS011;6123;48.864;9.200;2024-02-23T13:07:13;2.92;;;1.40;;
12118;SDS011;6123;48.864;9.200;2024-02-23T13:09:42;2.22;;;1.02;;
12118;SDS011;6123;48.864;9.200;2024-02-23T13:12:08;4.88;;;1.30;;
12118;SDS011;6123;48.864;9.200;2024-02-23T13:14:34;2.85;;;1.10;;
12118;SDS011;6123;48.864;9.200;2024-02-23T13:16:59;3.10;;;1.38;;
12118;SDS011;6123;48.864;9.200;2024-02-23T13:19:25;2.45;;;1.02;;
12118;SDS011;6123;48.864;9.200;2024-02-23T13:21:50;2.75;;;1.35;;
12118;SDS011;6123;48.864;9.200;2024-02-23T13:24:16;3.92;;;1.30;;
12118;SDS011;6123;48.864;9.200;2024-02-23T13:26:42;2.47;;;1.30;;
12118;SDS011;6123;48.864;9.200;2024-02-23T13:29:07;2.90;;;1.48;;
12118;SDS011;6123;48.864;9.200;2024-02-23T13:31:33;2.20;;;1.10;;
12118;SDS011;6123;48.864;9.200;2024-02-23T13:33:59;3.17;;;1.45;;
12118;SDS011;6123;48.864;9.200;2024-02-23T13:36:24;2.67;;;1.35;;
12118;SDS011;6123;48.864;9.200;2024-02-23T13:38:49;2.30;;;1.20;;
12118;SDS011;6123;48.864;9.200;2024-02-23T13:41:16;3.20;;;1.10;;
12118;SDS011;6123;48.864;9.200;2024-02-23T13:43:42;2.25;;;1.10;;
12118;SDS011;6123;48.864;9.200;2024-02-23T13:46:08;2.22;;;1.08;;
12118;SDS011;6123;48.864;9.200;2024-02-23T13:48:35;2.85;;;0.90;;
12118;SDS011;6123;48.864;9.200;2024-02-23T13:51:01;3.42;;;1.40;;
12118;SDS011;6123;48.864;9.200;2024-02-23T13:53:29;2.75;;;1.25;;
12118;SDS011;6123;48.864;9.200;2024-02-23T13:55:55;6.18;;;1.42;;
12118;SDS011;6123;48.864;9.200;2024-02-23T13:58:21;3.08;;;1.23;;
12118;SDS011;6123;48.864;9.200;2024-02-23T14:00:47;3.45;;;1.42;;
12118;SDS011;6123;48.864;9.200;2024-02-23T14:03:16;3.10;;;1.20;;
12118;SDS011;6123;48.864;9.200;2024-02-23T14:05:45;2.28;;;1.20;;
12118;SDS011;6123;48.864;9.200;2024-02-23T14:08:12;4.07;;;1.58;;
12118;SDS011;6123;48.864;9.200;2024-02-23T14:10:37;2.72;;;1.50;;
12118;SDS011;6123;48.864;9.200;2024-02-23T14:13:04;4.75;;;1.48;;
12118;SDS011;6123;48.864;9.200;2024-02-23T14:15:30;2.33;;;1.10;;
12118;SDS011;6123;48.864;9.200;2024-02-23T14:17:56;2.38;;;1.10;;
12118;SDS011;6123;48.864;9.200;2024-02-23T14:20:21;2.35;;;1.13;;
12118;SDS011;6123;48.864;9.200;2024-02-23T14:22:47;2.90;;;1.33;;
12118;SDS011;6123;48.864;9.200;2024-02-23T14:25:15;4.65;;;1.17;;
12118;SDS011;6123;48.864;9.200;2024-02-23T14:27:40;5.97;;;1.48;;
12118;SDS011;6123;48.864;9.200;2024-02-23T14:30:06;3.33;;;1.27;;
12118;SDS011;6123;48.864;9.200;2024-02-23T14:32:33;2.35;;;1.42;;
12118;SDS011;6123;48.864;9.200;2024-02-23T14:35:00;2.92;;;1.23;;
12118;SDS011;6123;48.864;9.200;2024-02-23T14:37:28;3.38;;;1.30;;
12118;SDS011;6123;48.864;9.200;2024-02-23T14:39:54;2.25;;;1.30;;
12118;SDS011;6123;48.864;9.200;2024-02-23T14:42:19;2.97;;;1.30;;
12118;SDS011;6123;48.864;9.200;2024-02-23T14:44:45;3.88;;;1.40;;
12118;SDS011;6123;48.864;9.200;2024-02-23T14:47:11;2.35;;;1.30;;
12118;SDS011;6123;48.864;9.200;2024-02-23T14:49:37;2.55;;;1.50;;
12118;SDS011;6123;48.864;9.200;2024-02-23T14:52:03;4.55;;;1.60;;
12118;SDS011;6123;48.864;9.200;2024-02-23T14:54:29;5.28;;;1.58;;